sensor_id;sensor_type;location;lat;lon;timestamp;P1;durP1;ratioP1;P2;durP2;ratioP2
2618;SDS011;1319;52.346;13.096;2023-04-25T00:01:53;4.73;;;2.80;;
2618;SDS011;1319;52.346;13.096;2023-04-25T00:04:18;7.80;;;2.97;;
2618;SDS011;1319;52.346;13.096;2023-04-25T00:06:43;5.83;;;2.60;;
2618;SDS011;1319;52.346;13.096;2023-04-25T00:09:08;5.10;;;2.87;;
2618;SDS011;1319;52.346;13.096;2023-04-25T00:11:35;3.83;;;2.70;;
2618;SDS011;1319;52.346;13.096;2023-04-25T00:14:00;3.03;;;2.73;;
2618;SDS011;1319;52.346;13.096;2023-04-25T00:16:27;3.63;;;2.93;;
2618;SDS011;1319;52.346;13.096;2023-04-25T00:18:53;4.67;;;2.90;;
2618;SDS011;1319;52.346;13.096;2023-04-25T00:21:19;3.43;;;3.03;;
2618;SDS011;1319;52.346;13.096;2023-04-25T00:23:44;5.93;;;3.00;;
2618;SDS011;1319;52.346;13.096;2023-04-25T00:26:10;7.57;;;3.43;;
2618;SDS011;1319;52.346;13.096;2023-04-25T00:28:36;6.60;;;2.80;;
2618;SDS011;1319;52.346;13.096;2023-04-25T00:31:02;10.43;;;3.17;;
2618;SDS011;1319;52.346;13.096;2023-04-25T00:33:27;6.10;;;3.20;;
2618;SDS011;1319;52.346;13.096;2023-04-25T00:35:52;7.33;;;3.03;;
2618;SDS011;1319;52.346;13.096;2023-04-25T00:38:18;6.87;;;3.07;;
2618;SDS011;1319;52.346;13.096;2023-04-25T00:40:43;6.97;;;3.10;;
2618;SDS011;1319;52.346;13.096;2023-04-25T00:43:08;8.87;;;3.80;;
2618;SDS011;1319;52.346;13.096;2023-04-25T00:45:33;6.30;;;2.83;;
2618;SDS011;1319;52.346;13.096;2023-04-25T00:48:02;6.07;;;3.03;;
2618;SDS011;1319;52.346;13.096;2023-04-25T00:50:28;4.13;;;3.30;;
2618;SDS011;1319;52.346;13.096;2023-04-25T00:52:53;4.40;;;3.23;;
2618;SDS011;1319;52.346;13.096;2023-04-25T00:55:18;5.10;;;2.93;;
2618;SDS011;1319;52.346;13.096;2023-04-25T00:57:44;9.70;;;3.27;;
2618;SDS011;1319;52.346;13.096;2023-04-25T01:00:10;4.53;;;3.03;;
2618;SDS011;1319;52.346;13.096;2023-04-25T01:02:36;4.83;;;3.00;;
2618;SDS011;1319;52.346;13.096;2023-04-25T01:05:02;5.57;;;2.93;;
2618;SDS011;1319;52.346;13.096;2023-04-25T01:07:27;4.47;;;3.10;;
2618;SDS011;1319;52.346;13.096;2023-04-25T01:09:52;11.07;;;3.10;;
2618;SDS011;1319;52.346;13.096;2023-04-25T01:12:17;8.53;;;3.43;;
2618;SDS011;1319;52.346;13.096;2023-04-25T01:14:43;7.23;;;3.10;;
2618;SDS011;1319;52.346;13.096;2023-04-25T01:17:09;3.83;;;2.77;;
2618;SDS011;1319;52.346;13.096;2023-04-25T01:19:34;5.97;;;3.57;;
2618;SDS011;1319;52.346;13.096;2023-04-25T01:22:00;9.37;;;3.37;;
2618;SDS011;1319;52.346;13.096;2023-04-25T01:24:25;6.17;;;3.20;;
2618;SDS011;1319;52.346;13.096;2023-04-25T01:26:51;5.47;;;3.30;;
2618;SDS011;1319;52.346;13.096;2023-04-25T01:29:17;6.17;;;3.70;;
2618;SDS011;1319;52.346;13.096;2023-04-25T01:31:43;8.60;;;3.40;;
2618;SDS011;1319;52.346;13.096;2023-04-25T01:34:09;11.90;;;3.60;;
2618;SDS011;1319;52.346;13.096;2023-04-25T01:36:34;6.07;;;3.23;;
2618;SDS011;1319;52.346;13.096;2023-04-25T01:39:00;5.73;;;3.20;;
2618;SDS011;1319;52.346;13.096;2023-04-25T01:41:25;6.37;;;3.33;;
2618;SDS011;1319;52.346;13.096;2023-04-25T01:43:50;7.40;;;3.60;;
2618;SDS011;1319;52.346;13.096;2023-04-25T01:46:16;7.67;;;4.13;;
2618;SDS011;1319;52.346;13.096;2023-04-25T01:48:41;6.23;;;3.47;;
2618;SDS011;1319;52.346;13.096;2023-04-25T01:51:06;7.07;;;3.70;;
2618;SDS011;1319;52.346;13.096;2023-04-25T01:53:31;5.90;;;3.97;;
2618;SDS011;1319;52.346;13.096;2023-04-25T01:55:57;6.33;;;3.60;;
2618;SDS011;1319;52.346;13.096;2023-04-25T01:58:22;6.27;;;3.47;;
2618;SDS011;1319;52.346;13.096;2023-04-25T02:00:47;7.27;;;3.93;;
2618;SDS011;1319;52.346;13.096;2023-04-25T02:03:12;8.60;;;4.23;;
2618;SDS011;1319;52.346;13.096;2023-04-25T02:05:38;5.93;;;4.03;;
2618;SDS011;1319;52.346;13.096;2023-04-25T02:08:07;8.40;;;3.70;;
2618;SDS011;1319;52.346;13.096;2023-04-25T02:10:33;9.07;;;3.90;;
2618;SDS011;1319;52.346;13.096;2023-04-25T02:12:59;6.93;;;3.93;;
2618;SDS011;1319;52.346;13.096;2023-04-25T02:15:24;9.30;;;3.97;;
2618;SDS011;1319;52.346;13.096;2023-04-25T02:17:49;4.93;;;3.50;;
2618;SDS011;1319;52.346;13.096;2023-04-25T02:20:14;7.17;;;4.03;;
2618;SDS011;1319;52.346;13.096;2023-04-25T02:22:41;8.47;;;4.17;;
2618;SDS011;1319;52.346;13.096;2023-04-25T02:25:07;7.07;;;3.60;;
2618;SDS011;1319;52.346;13.096;2023-04-25T02:27:32;10.00;;;4.23;;
2618;SDS011;1319;52.346;13.096;2023-04-25T02:29:57;6.53;;;4.10;;
2618;SDS011;1319;52.346;13.096;2023-04-25T02:32:22;9.50;;;3.90;;
2618;SDS011;1319;52.346;13.096;2023-04-25T02:34:48;7.57;;;4.03;;
2618;SDS011;1319;52.346;13.096;2023-04-25T02:37:13;8.90;;;4.33;;
2618;SDS011;1319;52.346;13.096;2023-04-25T02:39:38;11.17;;;4.47;;
2618;SDS011;1319;52.346;13.096;2023-04-25T02:42:03;6.90;;;4.10;;
2618;SDS011;1319;52.346;13.096;2023-04-25T02:44:29;7.47;;;3.90;;
2618;SDS011;1319;52.346;13.096;2023-04-25T02:46:54;6.13;;;4.37;;
2618;SDS011;1319;52.346;13.096;2023-04-25T02:49:19;9.20;;;4.80;;
2618;SDS011;1319;52.346;13.096;2023-04-25T02:51:45;8.30;;;4.07;;
2618;SDS011;1319;52.346;13.096;2023-04-25T02:54:10;7.80;;;4.47;;
2618;SDS011;1319;52.346;13.096;2023-04-25T02:56:35;7.57;;;4.27;;
2618;SDS011;1319;52.346;13.096;2023-04-25T02:59:00;7.13;;;4.53;;
2618;SDS011;1319;52.346;13.096;2023-04-25T03:01:25;8.20;;;4.10;;
2618;SDS011;1319;52.346;13.096;2023-04-25T03:03:51;6.67;;;4.40;;
2618;SDS011;1319;52.346;13.096;2023-04-25T03:06:16;6.80;;;4.30;;
2618;SDS011;1319;52.346;13.096;2023-04-25T03:08:41;9.20;;;4.20;;
2618;SDS011;1319;52.346;13.096;2023-04-25T03:11:06;12.83;;;4.43;;
2618;SDS011;1319;52.346;13.096;2023-04-25T03:13:31;11.73;;;4.83;;
2618;SDS011;1319;52.346;13.096;2023-04-25T03:15:57;9.47;;;4.40;;
2618;SDS011;1319;52.346;13.096;2023-04-25T03:18:22;6.67;;;4.13;;
2618;SDS011;1319;52.346;13.096;2023-04-25T03:20:47;8.20;;;4.47;;
2618;SDS011;1319;52.346;13.096;2023-04-25T03:23:12;8.23;;;4.27;;
2618;SDS011;1319;52.346;13.096;2023-04-25T03:25:37;11.83;;;5.07;;
2618;SDS011;1319;52.346;13.096;2023-04-25T03:28:03;7.93;;;4.90;;
2618;SDS011;1319;52.346;13.096;2023-04-25T03:30:28;11.37;;;5.50;;
2618;SDS011;1319;52.346;13.096;2023-04-25T03:32:53;8.07;;;5.10;;
2618;SDS011;1319;52.346;13.096;2023-04-25T03:35:18;9.27;;;5.23;;
2618;SDS011;1319;52.346;13.096;2023-04-25T03:37:43;8.57;;;4.60;;
2618;SDS011;1319;52.346;13.096;2023-04-25T03:40:11;11.10;;;5.20;;
2618;SDS011;1319;52.346;13.096;2023-04-25T03:42:37;12.40;;;5.20;;
2618;SDS011;1319;52.346;13.096;2023-04-25T03:45:02;11.37;;;4.83;;
2618;SDS011;1319;52.346;13.096;2023-04-25T03:47:27;11.80;;;5.43;;
2618;SDS011;1319;52.346;13.096;2023-04-25T03:49:52;12.33;;;4.70;;
2618;SDS011;1319;52.346;13.096;2023-04-25T03:52:18;10.70;;;5.40;;
2618;SDS011;1319;52.346;13.096;2023-04-25T03:54:43;10.23;;;5.00;;
2618;SDS011;1319;52.346;13.096;2023-04-25T03:57:08;10.13;;;5.27;;
2618;SDS011;1319;52.346;13.096;2023-04-25T03:59:33;9.67;;;4.70;;
2618;SDS011;1319;52.346;13.096;2023-04-25T04:01:59;7.23;;;4.80;;
2618;SDS011;1319;52.346;13.096;2023-04-25T04:04:24;9.97;;;5.20;;
2618;SDS011;1319;52.346;13.096;2023-04-25T04:06:49;7.73;;;5.10;;
2618;SDS011;1319;52.346;13.096;2023-04-25T04:09:14;14.07;;;5.30;;
2618;SDS011;1319;52.346;13.096;2023-04-25T04:11:40;14.73;;;5.03;;
2618;SDS011;1319;52.346;13.096;2023-04-25T04:14:06;10.27;;;5.17;;
2618;SDS011;1319;52.346;13.096;2023-04-25T04:16:31;11.80;;;4.93;;
2618;SDS011;1319;52.346;13.096;2023-04-25T04:18:56;11.67;;;5.30;;
2618;SDS011;1319;52.346;13.096;2023-04-25T04:21:22;12.10;;;5.60;;
2618;SDS011;1319;52.346;13.096;2023-04-25T04:23:47;9.93;;;5.03;;
2618;SDS011;1319;52.346;13.096;2023-04-25T04:26:13;13.53;;;5.43;;
2618;SDS011;1319;52.346;13.096;2023-04-25T04:28:40;8.70;;;4.93;;
2618;SDS011;1319;52.346;13.096;2023-04-25T04:31:05;8.37;;;5.27;;
2618;SDS011;1319;52.346;13.096;2023-04-25T04:33:32;12.70;;;5.70;;
2618;SDS011;1319;52.346;13.096;2023-04-25T04:35:57;10.50;;;5.33;;
2618;SDS011;1319;52.346;13.096;2023-04-25T04:38:23;12.50;;;5.43;;
2618;SDS011;1319;52.346;13.096;2023-04-25T04:40:48;8.63;;;5.30;;
2618;SDS011;1319;52.346;13.096;2023-04-25T04:43:15;9.27;;;4.87;;
2618;SDS011;1319;52.346;13.096;2023-04-25T04:45:42;10.87;;;5.47;;
2618;SDS011;1319;52.346;13.096;2023-04-25T04:48:07;11.47;;;5.67;;
2618;SDS011;1319;52.346;13.096;2023-04-25T04:50:33;10.57;;;5.40;;
2618;SDS011;1319;52.346;13.096;2023-04-25T04:52:59;10.30;;;6.00;;
2618;SDS011;1319;52.346;13.096;2023-04-25T04:55:24;16.90;;;6.27;;
2618;SDS011;1319;52.346;13.096;2023-04-25T04:57:49;16.47;;;6.30;;
2618;SDS011;1319;52.346;13.096;2023-04-25T05:00:15;10.47;;;6.00;;
2618;SDS011;1319;52.346;13.096;2023-04-25T05:02:40;13.80;;;5.83;;
2618;SDS011;1319;52.346;13.096;2023-04-25T05:05:06;12.03;;;5.37;;
2618;SDS011;1319;52.346;13.096;2023-04-25T05:07:31;17.40;;;6.03;;
2618;SDS011;1319;52.346;13.096;2023-04-25T05:09:56;12.83;;;5.70;;
2618;SDS011;1319;52.346;13.096;2023-04-25T05:12:21;12.97;;;5.37;;
2618;SDS011;1319;52.346;13.096;2023-04-25T05:14:46;9.67;;;5.13;;
2618;SDS011;1319;52.346;13.096;2023-04-25T05:17:12;16.20;;;5.60;;
2618;SDS011;1319;52.346;13.096;2023-04-25T05:19:37;10.83;;;5.43;;
2618;SDS011;1319;52.346;13.096;2023-04-25T05:22:03;10.70;;;5.83;;
2618;SDS011;1319;52.346;13.096;2023-04-25T05:24:28;14.50;;;6.20;;
2618;SDS011;1319;52.346;13.096;2023-04-25T05:26:53;11.40;;;5.43;;
2618;SDS011;1319;52.346;13.096;2023-04-25T05:29:18;12.20;;;5.53;;
2618;SDS011;1319;52.346;13.096;2023-04-25T05:31:44;7.30;;;5.20;;
2618;SDS011;1319;52.346;13.096;2023-04-25T05:34:09;16.63;;;5.67;;
2618;SDS011;1319;52.346;13.096;2023-04-25T05:36:35;13.40;;;6.00;;
2618;SDS011;1319;52.346;13.096;2023-04-25T05:39:00;13.90;;;5.73;;
2618;SDS011;1319;52.346;13.096;2023-04-25T05:41:25;12.70;;;5.73;;
2618;SDS011;1319;52.346;13.096;2023-04-25T05:43:50;11.80;;;5.60;;
2618;SDS011;1319;52.346;13.096;2023-04-25T05:46:15;11.57;;;5.67;;
2618;SDS011;1319;52.346;13.096;2023-04-25T05:48:43;13.73;;;6.20;;
2618;SDS011;1319;52.346;13.096;2023-04-25T05:51:09;12.17;;;5.57;;
2618;SDS011;1319;52.346;13.096;2023-04-25T05:53:34;12.20;;;6.53;;
2618;SDS011;1319;52.346;13.096;2023-04-25T05:55:59;10.40;;;5.23;;
2618;SDS011;1319;52.346;13.096;2023-04-25T05:58:24;10.17;;;5.23;;
2618;SDS011;1319;52.346;13.096;2023-04-25T06:00:50;13.00;;;5.57;;
2618;SDS011;1319;52.346;13.096;2023-04-25T06:03:15;14.07;;;5.97;;
2618;SDS011;1319;52.346;13.096;2023-04-25T06:05:41;11.00;;;5.53;;
2618;SDS011;1319;52.346;13.096;2023-04-25T06:08:06;10.53;;;5.33;;
2618;SDS011;1319;52.346;13.096;2023-04-25T06:10:31;11.63;;;5.53;;
2618;SDS011;1319;52.346;13.096;2023-04-25T06:12:56;13.73;;;5.57;;
2618;SDS011;1319;52.346;13.096;2023-04-25T06:15:22;12.33;;;5.67;;
2618;SDS011;1319;52.346;13.096;2023-04-25T06:17:47;10.00;;;5.77;;
2618;SDS011;1319;52.346;13.096;2023-04-25T06:20:13;11.77;;;5.47;;
2618;SDS011;1319;52.346;13.096;2023-04-25T06:22:38;11.47;;;6.10;;
2618;SDS011;1319;52.346;13.096;2023-04-25T06:25:04;12.53;;;5.50;;
2618;SDS011;1319;52.346;13.096;2023-04-25T06:27:29;12.80;;;5.53;;
2618;SDS011;1319;52.346;13.096;2023-04-25T06:29:54;12.13;;;5.33;;
2618;SDS011;1319;52.346;13.096;2023-04-25T06:32:20;12.60;;;5.33;;
2618;SDS011;1319;52.346;13.096;2023-04-25T06:34:45;9.00;;;5.20;;
2618;SDS011;1319;52.346;13.096;2023-04-25T06:37:10;11.33;;;5.27;;
2618;SDS011;1319;52.346;13.096;2023-04-25T06:39:35;10.43;;;4.90;;
2618;SDS011;1319;52.346;13.096;2023-04-25T06:42:01;9.17;;;4.60;;
2618;SDS011;1319;52.346;13.096;2023-04-25T06:44:26;8.23;;;4.53;;
2618;SDS011;1319;52.346;13.096;2023-04-25T06:46:53;17.47;;;5.23;;
2618;SDS011;1319;52.346;13.096;2023-04-25T06:49:18;7.90;;;4.80;;
2618;SDS011;1319;52.346;13.096;2023-04-25T06:51:44;6.77;;;4.20;;
2618;SDS011;1319;52.346;13.096;2023-04-25T06:54:09;7.17;;;4.63;;
2618;SDS011;1319;52.346;13.096;2023-04-25T06:56:34;11.30;;;4.43;;
2618;SDS011;1319;52.346;13.096;2023-04-25T06:58:59;7.90;;;4.47;;
2618;SDS011;1319;52.346;13.096;2023-04-25T07:01:25;7.77;;;4.50;;
2618;SDS011;1319;52.346;13.096;2023-04-25T07:03:50;12.00;;;4.23;;
2618;SDS011;1319;52.346;13.096;2023-04-25T07:06:16;9.27;;;4.33;;
2618;SDS011;1319;52.346;13.096;2023-04-25T07:08:41;5.93;;;4.47;;
2618;SDS011;1319;52.346;13.096;2023-04-25T07:11:06;8.63;;;4.37;;
2618;SDS011;1319;52.346;13.096;2023-04-25T07:13:31;8.03;;;3.33;;
2618;SDS011;1319;52.346;13.096;2023-04-25T07:15:57;9.40;;;3.33;;
2618;SDS011;1319;52.346;13.096;2023-04-25T07:18:22;18.07;;;3.70;;
2618;SDS011;1319;52.346;13.096;2023-04-25T07:20:47;13.60;;;3.83;;
2618;SDS011;1319;52.346;13.096;2023-04-25T07:23:12;12.97;;;4.10;;
2618;SDS011;1319;52.346;13.096;2023-04-25T07:25:37;14.67;;;3.83;;
2618;SDS011;1319;52.346;13.096;2023-04-25T07:28:03;12.10;;;4.30;;
2618;SDS011;1319;52.346;13.096;2023-04-25T07:30:29;20.63;;;4.40;;
2618;SDS011;1319;52.346;13.096;2023-04-25T07:32:54;16.80;;;4.57;;
2618;SDS011;1319;52.346;13.096;2023-04-25T07:35:20;18.37;;;4.23;;
2618;SDS011;1319;52.346;13.096;2023-04-25T07:37:45;12.73;;;4.30;;
2618;SDS011;1319;52.346;13.096;2023-04-25T07:40:10;21.27;;;4.60;;
2618;SDS011;1319;52.346;13.096;2023-04-25T07:42:36;13.77;;;4.40;;
2618;SDS011;1319;52.346;13.096;2023-04-25T07:45:01;19.27;;;4.53;;
2618;SDS011;1319;52.346;13.096;2023-04-25T07:47:27;16.17;;;4.37;;
2618;SDS011;1319;52.346;13.096;2023-04-25T07:49:52;12.37;;;4.17;;
2618;SDS011;1319;52.346;13.096;2023-04-25T07:52:18;14.40;;;3.73;;
2618;SDS011;1319;52.346;13.096;2023-04-25T07:54:43;14.17;;;3.93;;
2618;SDS011;1319;52.346;13.096;2023-04-25T07:57:08;15.93;;;4.30;;
2618;SDS011;1319;52.346;13.096;2023-04-25T07:59:33;12.50;;;4.90;;
2618;SDS011;1319;52.346;13.096;2023-04-25T08:01:59;11.10;;;4.30;;
2618;SDS011;1319;52.346;13.096;2023-04-25T08:04:24;16.00;;;4.63;;
2618;SDS011;1319;52.346;13.096;2023-04-25T08:06:53;17.67;;;4.20;;
2618;SDS011;1319;52.346;13.096;2023-04-25T08:09:19;15.67;;;3.60;;
2618;SDS011;1319;52.346;13.096;2023-04-25T08:11:44;13.97;;;4.00;;
2618;SDS011;1319;52.346;13.096;2023-04-25T08:14:09;15.07;;;4.57;;
2618;SDS011;1319;52.346;13.096;2023-04-25T08:16:34;14.63;;;4.17;;
2618;SDS011;1319;52.346;13.096;2023-04-25T08:19:00;16.10;;;4.13;;
2618;SDS011;1319;52.346;13.096;2023-04-25T08:21:25;15.63;;;4.23;;
2618;SDS011;1319;52.346;13.096;2023-04-25T08:23:52;15.87;;;4.40;;
2618;SDS011;1319;52.346;13.096;2023-04-25T08:26:17;16.50;;;4.27;;
2618;SDS011;1319;52.346;13.096;2023-04-25T08:28:43;12.83;;;3.83;;
2618;SDS011;1319;52.346;13.096;2023-04-25T08:31:08;13.97;;;4.03;;
2618;SDS011;1319;52.346;13.096;2023-04-25T08:33:33;14.50;;;3.53;;
2618;SDS011;1319;52.346;13.096;2023-04-25T08:35:58;13.33;;;3.67;;
2618;SDS011;1319;52.346;13.096;2023-04-25T08:38:24;16.13;;;3.40;;
2618;SDS011;1319;52.346;13.096;2023-04-25T08:40:50;16.37;;;3.53;;
2618;SDS011;1319;52.346;13.096;2023-04-25T08:43:18;17.83;;;3.63;;
2618;SDS011;1319;52.346;13.096;2023-04-25T08:45:44;15.30;;;3.70;;
2618;SDS011;1319;52.346;13.096;2023-04-25T08:48:14;14.23;;;3.03;;
2618;SDS011;1319;52.346;13.096;2023-04-25T08:50:40;15.97;;;3.23;;
2618;SDS011;1319;52.346;13.096;2023-04-25T08:53:08;14.43;;;3.37;;
2618;SDS011;1319;52.346;13.096;2023-04-25T08:55:34;11.97;;;3.10;;
2618;SDS011;1319;52.346;13.096;2023-04-25T08:58:01;14.20;;;3.10;;
2618;SDS011;1319;52.346;13.096;2023-04-25T09:00:26;12.90;;;2.97;;
2618;SDS011;1319;52.346;13.096;2023-04-25T09:02:51;18.27;;;3.93;;
2618;SDS011;1319;52.346;13.096;2023-04-25T09:05:17;10.40;;;3.33;;
2618;SDS011;1319;52.346;13.096;2023-04-25T09:07:43;14.17;;;3.77;;
2618;SDS011;1319;52.346;13.096;2023-04-25T09:10:08;15.73;;;3.53;;
2618;SDS011;1319;52.346;13.096;2023-04-25T09:12:34;15.23;;;3.40;;
2618;SDS011;1319;52.346;13.096;2023-04-25T09:15:09;19.47;;;3.83;;
2618;SDS011;1319;52.346;13.096;2023-04-25T09:17:35;13.57;;;3.27;;
2618;SDS011;1319;52.346;13.096;2023-04-25T09:20:12;18.17;;;3.80;;
2618;SDS011;1319;52.346;13.096;2023-04-25T09:22:37;11.33;;;3.30;;
2618;SDS011;1319;52.346;13.096;2023-04-25T09:25:04;13.70;;;3.13;;
2618;SDS011;1319;52.346;13.096;2023-04-25T09:27:32;18.03;;;3.67;;
2618;SDS011;1319;52.346;13.096;2023-04-25T09:29:58;15.00;;;3.00;;
2618;SDS011;1319;52.346;13.096;2023-04-25T09:32:26;9.90;;;3.40;;
2618;SDS011;1319;52.346;13.096;2023-04-25T09:34:55;10.13;;;2.83;;
2618;SDS011;1319;52.346;13.096;2023-04-25T09:37:23;9.77;;;2.57;;
2618;SDS011;1319;52.346;13.096;2023-04-25T09:39:52;15.13;;;3.17;;
2618;SDS011;1319;52.346;13.096;2023-04-25T09:42:18;9.87;;;3.10;;
2618;SDS011;1319;52.346;13.096;2023-04-25T09:44:46;15.90;;;3.00;;
2618;SDS011;1319;52.346;13.096;2023-04-25T09:47:12;8.57;;;3.00;;
2618;SDS011;1319;52.346;13.096;2023-04-25T09:49:41;9.80;;;2.80;;
2618;SDS011;1319;52.346;13.096;2023-04-25T09:52:07;14.63;;;2.47;;
2618;SDS011;1319;52.346;13.096;2023-04-25T09:54:32;10.23;;;2.70;;
2618;SDS011;1319;52.346;13.096;2023-04-25T09:56:58;7.03;;;2.50;;
2618;SDS011;1319;52.346;13.096;2023-04-25T09:59:25;8.50;;;3.13;;
2618;SDS011;1319;52.346;13.096;2023-04-25T10:01:51;7.27;;;2.60;;
2618;SDS011;1319;52.346;13.096;2023-04-25T10:04:23;9.93;;;2.40;;
2618;SDS011;1319;52.346;13.096;2023-04-25T10:06:49;6.70;;;2.60;;
2618;SDS011;1319;52.346;13.096;2023-04-25T10:09:17;7.20;;;2.33;;
2618;SDS011;1319;52.346;13.096;2023-04-25T10:11:45;8.67;;;2.70;;
2618;SDS011;1319;52.346;13.096;2023-04-25T10:14:12;7.83;;;2.50;;
2618;SDS011;1319;52.346;13.096;2023-04-25T10:16:37;14.00;;;2.50;;
2618;SDS011;1319;52.346;13.096;2023-04-25T10:19:03;11.87;;;2.47;;
2618;SDS011;1319;52.346;13.096;2023-04-25T10:21:28;9.87;;;2.53;;
2618;SDS011;1319;52.346;13.096;2023-04-25T10:23:56;9.67;;;2.47;;
2618;SDS011;1319;52.346;13.096;2023-04-25T10:26:21;8.37;;;2.70;;
2618;SDS011;1319;52.346;13.096;2023-04-25T10:29:00;9.23;;;2.70;;
2618;SDS011;1319;52.346;13.096;2023-04-25T10:31:26;13.07;;;2.77;;
2618;SDS011;1319;52.346;13.096;2023-04-25T10:33:51;5.27;;;2.00;;
2618;SDS011;1319;52.346;13.096;2023-04-25T10:36:20;11.03;;;2.57;;
2618;SDS011;1319;52.346;13.096;2023-04-25T10:38:47;11.97;;;2.43;;
2618;SDS011;1319;52.346;13.096;2023-04-25T10:41:13;10.47;;;2.80;;
2618;SDS011;1319;52.346;13.096;2023-04-25T10:43:39;8.80;;;2.27;;
2618;SDS011;1319;52.346;13.096;2023-04-25T10:46:17;10.83;;;2.53;;
2618;SDS011;1319;52.346;13.096;2023-04-25T10:48:47;11.20;;;2.40;;
2618;SDS011;1319;52.346;13.096;2023-04-25T10:54:08;12.30;;;2.80;;
2618;SDS011;1319;52.346;13.096;2023-04-25T10:56:38;7.43;;;2.50;;
2618;SDS011;1319;52.346;13.096;2023-04-25T10:59:14;12.83;;;2.70;;
2618;SDS011;1319;52.346;13.096;2023-04-25T11:04:05;9.77;;;2.40;;
2618;SDS011;1319;52.346;13.096;2023-04-25T11:06:46;13.43;;;2.40;;
2618;SDS011;1319;52.346;13.096;2023-04-25T11:09:15;8.37;;;2.43;;
2618;SDS011;1319;52.346;13.096;2023-04-25T11:11:40;14.13;;;2.40;;
2618;SDS011;1319;52.346;13.096;2023-04-25T11:14:05;9.33;;;2.20;;
2618;SDS011;1319;52.346;13.096;2023-04-25T11:16:31;11.37;;;2.77;;
2618;SDS011;1319;52.346;13.096;2023-04-25T11:18:57;12.93;;;2.43;;
2618;SDS011;1319;52.346;13.096;2023-04-25T11:21:22;10.10;;;2.57;;
2618;SDS011;1319;52.346;13.096;2023-04-25T11:23:48;11.50;;;2.50;;
2618;SDS011;1319;52.346;13.096;2023-04-25T11:26:13;13.17;;;3.07;;
2618;SDS011;1319;52.346;13.096;2023-04-25T11:28:39;10.50;;;2.77;;
2618;SDS011;1319;52.346;13.096;2023-04-25T11:31:04;6.97;;;2.57;;
2618;SDS011;1319;52.346;13.096;2023-04-25T11:33:29;8.87;;;2.80;;
2618;SDS011;1319;52.346;13.096;2023-04-25T11:35:55;9.23;;;2.50;;
2618;SDS011;1319;52.346;13.096;2023-04-25T11:38:21;10.03;;;2.90;;
2618;SDS011;1319;52.346;13.096;2023-04-25T11:40:51;8.70;;;2.53;;
2618;SDS011;1319;52.346;13.096;2023-04-25T11:43:16;11.00;;;2.53;;
2618;SDS011;1319;52.346;13.096;2023-04-25T11:45:45;8.57;;;2.30;;
2618;SDS011;1319;52.346;13.096;2023-04-25T11:48:10;6.93;;;2.23;;
2618;SDS011;1319;52.346;13.096;2023-04-25T11:50:36;10.37;;;2.43;;
2618;SDS011;1319;52.346;13.096;2023-04-25T11:53:03;8.33;;;2.30;;
2618;SDS011;1319;52.346;13.096;2023-04-25T11:55:28;5.43;;;2.40;;
2618;SDS011;1319;52.346;13.096;2023-04-25T11:57:55;7.13;;;2.37;;
2618;SDS011;1319;52.346;13.096;2023-04-25T12:00:20;6.57;;;2.33;;
2618;SDS011;1319;52.346;13.096;2023-04-25T12:02:47;9.37;;;2.63;;
2618;SDS011;1319;52.346;13.096;2023-04-25T12:05:13;8.83;;;2.50;;
2618;SDS011;1319;52.346;13.096;2023-04-25T12:07:39;7.70;;;2.00;;
2618;SDS011;1319;52.346;13.096;2023-04-25T12:10:07;7.70;;;1.97;;
2618;SDS011;1319;52.346;13.096;2023-04-25T12:12:33;9.10;;;2.20;;
2618;SDS011;1319;52.346;13.096;2023-04-25T12:15:07;6.30;;;2.30;;
2618;SDS011;1319;52.346;13.096;2023-04-25T12:17:33;6.77;;;2.23;;
2618;SDS011;1319;52.346;13.096;2023-04-25T12:19:58;5.93;;;2.13;;
2618;SDS011;1319;52.346;13.096;2023-04-25T12:22:24;4.73;;;1.90;;
2618;SDS011;1319;52.346;13.096;2023-04-25T12:24:50;3.83;;;1.63;;
2618;SDS011;1319;52.346;13.096;2023-04-25T12:27:15;4.13;;;1.90;;
2618;SDS011;1319;52.346;13.096;2023-04-25T12:29:49;3.53;;;2.20;;
2618;SDS011;1319;52.346;13.096;2023-04-25T12:32:15;8.93;;;2.33;;
2618;SDS011;1319;52.346;13.096;2023-04-25T12:34:40;8.13;;;2.50;;
2618;SDS011;1319;52.346;13.096;2023-04-25T12:37:05;5.53;;;2.20;;
2618;SDS011;1319;52.346;13.096;2023-04-25T12:39:30;14.00;;;2.30;;
2618;SDS011;1319;52.346;13.096;2023-04-25T12:41:55;7.70;;;2.00;;
2618;SDS011;1319;52.346;13.096;2023-04-25T12:44:21;6.37;;;2.30;;
2618;SDS011;1319;52.346;13.096;2023-04-25T12:46:46;14.70;;;2.77;;
2618;SDS011;1319;52.346;13.096;2023-04-25T12:49:12;6.03;;;1.93;;
2618;SDS011;1319;52.346;13.096;2023-04-25T12:51:37;5.27;;;2.33;;
2618;SDS011;1319;52.346;13.096;2023-04-25T12:54:03;6.67;;;2.20;;
2618;SDS011;1319;52.346;13.096;2023-04-25T12:56:29;11.10;;;2.27;;
2618;SDS011;1319;52.346;13.096;2023-04-25T12:58:55;7.53;;;2.40;;
2618;SDS011;1319;52.346;13.096;2023-04-25T13:01:20;10.00;;;2.77;;
2618;SDS011;1319;52.346;13.096;2023-04-25T13:03:46;5.87;;;2.10;;
2618;SDS011;1319;52.346;13.096;2023-04-25T13:06:11;7.77;;;2.40;;
2618;SDS011;1319;52.346;13.096;2023-04-25T13:08:38;7.80;;;2.20;;
2618;SDS011;1319;52.346;13.096;2023-04-25T13:11:03;12.03;;;2.47;;
2618;SDS011;1319;52.346;13.096;2023-04-25T13:13:29;9.67;;;2.60;;
2618;SDS011;1319;52.346;13.096;2023-04-25T13:15:54;4.87;;;2.93;;
2618;SDS011;1319;52.346;13.096;2023-04-25T13:18:19;6.20;;;2.33;;
2618;SDS011;1319;52.346;13.096;2023-04-25T13:20:45;7.80;;;2.47;;
2618;SDS011;1319;52.346;13.096;2023-04-25T13:23:11;8.50;;;2.43;;
2618;SDS011;1319;52.346;13.096;2023-04-25T13:25:36;8.43;;;2.43;;
2618;SDS011;1319;52.346;13.096;2023-04-25T13:28:01;7.07;;;2.13;;
2618;SDS011;1319;52.346;13.096;2023-04-25T13:30:27;10.33;;;2.67;;
2618;SDS011;1319;52.346;13.096;2023-04-25T13:32:52;5.53;;;2.40;;
2618;SDS011;1319;52.346;13.096;2023-04-25T13:35:17;7.17;;;2.80;;
2618;SDS011;1319;52.346;13.096;2023-04-25T13:37:42;6.20;;;2.17;;
2618;SDS011;1319;52.346;13.096;2023-04-25T13:40:08;6.50;;;2.40;;
2618;SDS011;1319;52.346;13.096;2023-04-25T13:42:35;12.47;;;2.57;;
2618;SDS011;1319;52.346;13.096;2023-04-25T13:45:00;6.10;;;2.53;;
2618;SDS011;1319;52.346;13.096;2023-04-25T13:47:26;10.30;;;2.70;;
2618;SDS011;1319;52.346;13.096;2023-04-25T13:49:51;9.57;;;2.40;;
2618;SDS011;1319;52.346;13.096;2023-04-25T13:52:17;6.57;;;2.23;;
2618;SDS011;1319;52.346;13.096;2023-04-25T13:54:42;7.17;;;2.57;;
2618;SDS011;1319;52.346;13.096;2023-04-25T13:57:07;11.37;;;2.60;;
2618;SDS011;1319;52.346;13.096;2023-04-25T13:59:32;10.10;;;2.63;;
2618;SDS011;1319;52.346;13.096;2023-04-25T14:01:58;6.37;;;2.50;;
2618;SDS011;1319;52.346;13.096;2023-04-25T14:04:23;9.17;;;2.30;;
2618;SDS011;1319;52.346;13.096;2023-04-25T14:06:48;6.80;;;2.40;;
2618;SDS011;1319;52.346;13.096;2023-04-25T14:09:14;5.37;;;2.20;;
2618;SDS011;1319;52.346;13.096;2023-04-25T14:11:40;5.47;;;2.37;;
2618;SDS011;1319;52.346;13.096;2023-04-25T14:14:05;13.67;;;2.40;;
2618;SDS011;1319;52.346;13.096;2023-04-25T14:16:30;7.27;;;2.50;;
2618;SDS011;1319;52.346;13.096;2023-04-25T14:18:57;11.37;;;2.33;;
2618;SDS011;1319;52.346;13.096;2023-04-25T14:21:22;10.83;;;3.10;;
2618;SDS011;1319;52.346;13.096;2023-04-25T14:23:48;6.23;;;2.80;;
2618;SDS011;1319;52.346;13.096;2023-04-25T14:26:13;48.77;;;19.37;;
2618;SDS011;1319;52.346;13.096;2023-04-25T14:28:38;9.80;;;2.90;;
2618;SDS011;1319;52.346;13.096;2023-04-25T14:31:04;12.10;;;3.17;;
2618;SDS011;1319;52.346;13.096;2023-04-25T14:33:29;8.30;;;2.90;;
2618;SDS011;1319;52.346;13.096;2023-04-25T14:35:55;10.50;;;2.80;;
2618;SDS011;1319;52.346;13.096;2023-04-25T14:38:21;11.73;;;2.63;;
2618;SDS011;1319;52.346;13.096;2023-04-25T14:40:48;8.50;;;2.90;;
2618;SDS011;1319;52.346;13.096;2023-04-25T14:43:13;8.83;;;2.10;;
2618;SDS011;1319;52.346;13.096;2023-04-25T14:45:38;7.70;;;2.37;;
2618;SDS011;1319;52.346;13.096;2023-04-25T14:48:04;5.37;;;2.50;;
2618;SDS011;1319;52.346;13.096;2023-04-25T14:50:29;7.70;;;2.20;;
2618;SDS011;1319;52.346;13.096;2023-04-25T14:52:55;11.17;;;2.03;;